createdAt,value
2022-11-18T00:02:19.726Z,1.23
2022-11-18T00:04:48.110Z,1.45
2022-11-18T00:07:16.470Z,1.20
2022-11-18T00:09:44.651Z,1.08
2022-11-18T00:12:30.369Z,1.27
2022-11-18T00:14:59.957Z,1.10
2022-11-18T00:17:28.206Z,0.90
2022-11-18T00:19:56.285Z,3.17
2022-11-18T00:22:29.595Z,1.50
2022-11-18T00:24:58.058Z,1.45
2022-11-18T00:27:26.447Z,1.10
2022-11-18T00:29:54.401Z,1.00
2022-11-18T00:32:24.318Z,1.30
2022-11-18T00:34:52.458Z,1.02
2022-11-18T00:37:20.568Z,1.67
2022-11-18T00:39:48.838Z,2.10
2022-11-18T00:42:30.650Z,1.30
2022-11-18T00:44:58.991Z,1.55
2022-11-18T00:47:28.632Z,0.95
2022-11-18T00:49:56.905Z,1.25
2022-11-18T00:52:24.887Z,2.92
2022-11-18T00:54:53.048Z,1.63
2022-11-18T00:57:20.975Z,1.08
2022-11-18T00:59:49.102Z,0.95
2022-11-18T01:02:17.128Z,1.38
2022-11-18T01:04:46.486Z,0.93
2022-11-18T01:07:14.895Z,1.02
2022-11-18T01:09:42.900Z,3.28
2022-11-18T01:12:29.603Z,1.17
2022-11-18T01:15:07.410Z,1.90
2022-11-18T01:17:35.423Z,1.23
2022-11-18T01:20:05.449Z,2.85
2022-11-18T01:22:33.567Z,1.58
2022-11-18T01:25:01.695Z,0.70
2022-11-18T01:27:38.672Z,1.77
2022-11-18T01:30:07.888Z,2.47
2022-11-18T01:32:36.118Z,0.90
2022-11-18T01:35:05.989Z,2.65
2022-11-18T01:37:34.284Z,0.90
2022-11-18T01:40:02.242Z,0.95
2022-11-18T01:42:45.187Z,1.58
2022-11-18T01:45:34.235Z,0.98
2022-11-18T01:48:08.754Z,1.40
2022-11-18T01:50:44.516Z,0.90
2022-11-18T01:53:20.105Z,2.08
2022-11-18T01:55:51.918Z,1.25
2022-11-18T01:58:23.820Z,3.15
2022-11-18T02:00:52.112Z,0.85
2022-11-18T02:03:22.118Z,1.00
2022-11-18T02:05:55.113Z,1.27
2022-11-18T02:08:24.302Z,0.60
2022-11-18T02:10:52.419Z,3.17
2022-11-18T02:13:20.869Z,0.80
2022-11-18T02:16:01.857Z,1.33
2022-11-18T02:18:37.473Z,2.75
2022-11-18T02:21:22.673Z,0.50
2022-11-18T02:24:13.295Z,0.65
2022-11-18T02:27:06.053Z,0.70
2022-11-18T02:29:42.033Z,0.55
2022-11-18T02:32:15.377Z,0.85
2022-11-18T02:34:50.600Z,1.23
2022-11-18T02:37:26.402Z,1.95
2022-11-18T02:39:59.870Z,0.50
2022-11-18T02:42:31.734Z,2.75
2022-11-18T02:45:05.111Z,0.82
2022-11-18T02:47:36.426Z,0.50
2022-11-18T02:50:07.831Z,0.50
2022-11-18T02:52:38.511Z,0.73
2022-11-18T02:55:11.971Z,1.63
2022-11-18T02:57:42.955Z,1.58
2022-11-18T03:00:14.087Z,0.70
2022-11-18T03:02:43.917Z,0.82
2022-11-18T03:05:18.525Z,0.70
2022-11-18T03:07:51.723Z,0.70
2022-11-18T03:10:23.095Z,0.82
2022-11-18T03:12:59.109Z,2.05
2022-11-18T03:15:37.607Z,1.13
2022-11-18T03:18:17.256Z,0.88
2022-11-18T03:20:50.245Z,1.30
2022-11-18T03:23:26.378Z,0.90
2022-11-18T03:25:56.653Z,1.02
2022-11-18T03:28:31.391Z,0.50
2022-11-18T03:31:12.098Z,0.55
2022-11-18T03:33:46.145Z,0.70
2022-11-18T03:36:16.907Z,0.70
2022-11-18T03:38:49.814Z,0.70
2022-11-18T03:41:20.035Z,0.70
2022-11-18T03:43:57.680Z,0.60
2022-11-18T03:46:31.916Z,0.98
2022-11-18T03:49:00.482Z,0.50
2022-11-18T03:51:34.531Z,0.60
2022-11-18T03:54:09.599Z,0.60
2022-11-18T03:56:44.274Z,1.45
2022-11-18T03:59:18.111Z,0.50
2022-11-18T04:01:54.094Z,0.60
2022-11-18T04:04:23.195Z,0.55
2022-11-18T04:06:55.360Z,0.70
2022-11-18T04:09:28.435Z,0.50
2022-11-18T04:12:03.683Z,0.50
2022-11-18T04:14:33.725Z,0.50
2022-11-18T04:17:08.847Z,1.15
2022-11-18T04:19:37.249Z,0.63
2022-11-18T04:22:05.275Z,0.77
2022-11-18T04:24:33.757Z,0.50
2022-11-18T04:27:02.659Z,0.70
2022-11-18T04:29:31.254Z,0.40
2022-11-18T04:31:59.514Z,0.50
2022-11-18T04:34:29.381Z,0.63
2022-11-18T04:36:57.705Z,0.55
2022-11-18T04:39:34.420Z,1.10
2022-11-18T04:42:02.394Z,0.60
2022-11-18T04:44:31.822Z,1.83
2022-11-18T04:47:02.386Z,0.60
2022-11-18T04:49:32.369Z,0.60
2022-11-18T04:52:00.774Z,0.68
2022-11-18T04:54:29.314Z,0.70
2022-11-18T04:56:57.801Z,0.52
2022-11-18T04:59:27.552Z,2.08
2022-11-18T05:02:08.377Z,0.60
2022-11-18T05:04:37.820Z,0.50
2022-11-18T05:07:07.864Z,0.60
2022-11-18T05:09:36.162Z,0.50
2022-11-18T05:12:21.533Z,0.60
2022-11-18T05:14:50.763Z,0.70
2022-11-18T05:17:19.523Z,0.60
2022-11-18T05:19:48.982Z,0.60
2022-11-18T05:22:17.677Z,1.05
2022-11-18T05:24:45.633Z,0.70
2022-11-18T05:27:13.740Z,3.42
2022-11-18T05:29:41.703Z,3.38
2022-11-18T05:32:09.888Z,0.75
2022-11-18T05:34:37.970Z,0.70
2022-11-18T05:37:07.489Z,0.60
2022-11-18T05:39:36.037Z,0.90
2022-11-18T05:42:22.950Z,1.33
2022-11-18T05:44:57.861Z,0.80
2022-11-18T05:47:26.719Z,0.60
2022-11-18T05:49:54.733Z,0.80
2022-11-18T05:52:24.053Z,1.02
2022-11-18T05:54:52.806Z,1.65
2022-11-18T05:57:21.133Z,0.93
2022-11-18T05:59:49.339Z,2.53
2022-11-18T06:02:21.538Z,0.70
2022-11-18T06:04:53.592Z,0.57
2022-11-18T06:07:25.626Z,0.60
2022-11-18T06:10:00.918Z,0.68
2022-11-18T06:12:36.694Z,2.58
2022-11-18T06:15:12.364Z,0.70
2022-11-18T06:17:45.352Z,2.10
2022-11-18T06:20:13.764Z,1.00
2022-11-18T06:22:46.555Z,1.08
2022-11-18T06:25:15.745Z,0.57
2022-11-18T06:27:44.473Z,1.00
2022-11-18T06:30:13.558Z,0.75
2022-11-18T06:32:41.772Z,0.60
2022-11-18T06:35:10.125Z,2.05
2022-11-18T06:37:38.254Z,0.80
2022-11-18T06:40:09.722Z,0.60
2022-11-18T06:42:55.198Z,1.45
2022-11-18T06:45:23.543Z,0.60
2022-11-18T06:47:50.612Z,0.77
2022-11-18T06:50:18.931Z,0.60
2022-11-18T06:52:46.863Z,1.00
2022-11-18T06:55:16.810Z,1.60
2022-11-18T06:57:44.785Z,0.77
2022-11-18T07:00:15.174Z,0.80
2022-11-18T07:02:43.227Z,1.50
2022-11-18T07:05:11.433Z,0.55
2022-11-18T07:07:42.186Z,1.00
2022-11-18T07:10:11.638Z,0.80
2022-11-18T07:12:40.920Z,0.88
2022-11-18T07:15:10.209Z,0.80
2022-11-18T07:17:38.484Z,1.00
2022-11-18T07:20:07.327Z,0.50
2022-11-18T07:22:38.088Z,1.02
2022-11-18T07:25:06.812Z,0.52
2022-11-18T07:27:34.988Z,0.73
2022-11-18T07:30:04.921Z,1.02
2022-11-18T07:32:34.189Z,1.58
2022-11-18T07:35:02.293Z,1.23
2022-11-18T07:37:30.475Z,0.90
2022-11-18T07:39:59.856Z,0.90
2022-11-18T07:42:42.787Z,0.70
2022-11-18T07:45:25.432Z,0.60
2022-11-18T07:47:53.548Z,0.60
2022-11-18T07:50:21.616Z,0.50
2022-11-18T07:52:49.807Z,0.90
2022-11-18T07:55:18.489Z,0.50
2022-11-18T07:57:46.475Z,0.68
2022-11-18T08:00:16.500Z,0.50
2022-11-18T08:02:45.884Z,0.70
2022-11-18T08:05:17.971Z,0.60
2022-11-18T08:07:46.556Z,0.40
2022-11-18T08:10:14.815Z,1.30
2022-11-18T08:12:42.766Z,0.90
2022-11-18T08:15:11.779Z,0.52
2022-11-18T08:17:39.792Z,0.57
2022-11-18T08:20:10.632Z,0.70
2022-11-18T08:22:38.800Z,1.15
2022-11-18T08:25:07.843Z,0.90
2022-11-18T08:27:36.331Z,0.88
2022-11-18T08:30:06.536Z,0.63
2022-11-18T08:32:35.260Z,0.40
2022-11-18T08:35:08.075Z,0.40
2022-11-18T08:37:40.375Z,1.30
2022-11-18T08:40:09.529Z,0.60
2022-11-18T08:42:38.648Z,0.60
2022-11-18T08:45:08.423Z,0.52
2022-11-18T08:47:36.756Z,0.40
2022-11-18T08:50:04.973Z,1.15
2022-11-18T08:52:33.269Z,0.40
2022-11-18T08:55:03.155Z,0.50
2022-11-18T08:57:32.242Z,0.65
2022-11-18T09:00:00.358Z,0.70
2022-11-18T09:02:38.695Z,0.40
2022-11-18T09:05:07.507Z,0.93
2022-11-18T09:07:35.664Z,0.57
2022-11-18T09:10:05.912Z,1.33
2022-11-18T09:12:33.935Z,4.25
2022-11-18T09:15:15.567Z,0.60
2022-11-18T09:17:44.027Z,0.95
2022-11-18T09:20:12.427Z,0.70
2022-11-18T09:22:40.577Z,0.60
2022-11-18T09:25:11.036Z,1.38
2022-11-18T09:27:39.294Z,1.33
2022-11-18T09:30:08.579Z,1.38
2022-11-18T09:32:36.574Z,1.20
2022-11-18T09:35:05.739Z,1.50
2022-11-18T09:37:34.609Z,2.13
2022-11-18T09:40:02.841Z,1.58
2022-11-18T09:42:47.455Z,1.95
2022-11-18T09:45:24.799Z,2.00
2022-11-18T09:47:57.907Z,2.35
2022-11-18T09:53:20.751Z,2.83
2022-11-18T09:55:50.184Z,2.90
2022-11-18T09:58:28.735Z,2.33
2022-11-18T10:00:58.135Z,2.40
2022-11-18T10:03:29.171Z,3.70
2022-11-18T10:06:05.207Z,3.55
2022-11-18T10:08:37.690Z,3.20
2022-11-18T10:11:11.895Z,2.75
2022-11-18T10:13:52.793Z,2.42
2022-11-18T10:16:30.324Z,2.72
2022-11-18T10:19:10.624Z,2.72
2022-11-18T10:21:50.046Z,2.63
2022-11-18T10:24:21.198Z,4.20
2022-11-18T10:26:56.673Z,2.40
2022-11-18T10:29:26.916Z,7.00
2022-11-18T10:32:04.363Z,2.88
2022-11-18T10:34:34.547Z,2.08
2022-11-18T10:37:06.131Z,5.78
2022-11-18T10:39:34.799Z,2.60
2022-11-18T10:42:05.689Z,3.35
2022-11-18T10:44:41.621Z,2.38
2022-11-18T10:47:31.095Z,2.40
2022-11-18T10:50:01.112Z,2.00
2022-11-18T10:52:31.025Z,3.60
2022-11-18T10:55:20.771Z,4.15
2022-11-18T10:57:51.465Z,1.10
2022-11-18T11:00:42.493Z,0.98
2022-11-18T11:03:24.934Z,1.40
2022-11-18T11:06:21.171Z,1.58
2022-11-18T11:08:51.232Z,2.28
2022-11-18T11:11:28.739Z,1.73
2022-11-18T11:14:03.015Z,4.30
2022-11-18T11:16:37.343Z,2.20
2022-11-18T11:19:10.958Z,2.42
2022-11-18T11:21:39.377Z,2.03
2022-11-18T11:24:16.912Z,1.60
2022-11-18T11:30:04.464Z,1.90
2022-11-18T11:32:53.994Z,3.38
2022-11-18T11:35:24.834Z,1.52
2022-11-18T11:37:56.818Z,2.20
2022-11-18T11:40:34.180Z,2.20
2022-11-18T11:43:25.292Z,1.75
2022-11-18T11:46:15.671Z,1.60
2022-11-18T11:48:57.313Z,2.47
2022-11-18T11:51:33.898Z,1.40
2022-11-18T11:54:31.501Z,2.40
2022-11-18T11:57:05.418Z,3.42
2022-11-18T11:59:45.243Z,1.80
2022-11-18T12:02:38.902Z,1.23
2022-11-18T12:05:21.562Z,3.22
2022-11-18T12:07:54.894Z,2.05
2022-11-18T12:10:43.290Z,2.95
2022-11-18T12:13:26.081Z,2.55
2022-11-18T12:16:06.206Z,2.67
2022-11-18T12:18:39.428Z,9.68
2022-11-18T12:21:09.139Z,6.85
2022-11-18T12:23:37.141Z,2.78
2022-11-18T12:26:07.459Z,6.15
2022-11-18T12:28:41.364Z,5.63
2022-11-18T12:31:30.975Z,2.33
2022-11-18T12:34:01.211Z,4.35
2022-11-18T12:36:33.127Z,2.90
2022-11-18T12:39:39.919Z,4.90
2022-11-18T12:43:11.759Z,2.30
2022-11-18T12:45:58.472Z,4.28
2022-11-18T12:48:50.415Z,5.63
2022-11-18T12:51:46.953Z,3.00
2022-11-18T12:54:28.289Z,2.25
2022-11-18T12:57:00.747Z,6.97
2022-11-18T12:59:31.868Z,2.20
2022-11-18T13:02:21.381Z,2.20
2022-11-18T13:05:05.721Z,4.35
2022-11-18T13:08:00.185Z,2.25
2022-11-18T13:10:31.795Z,2.53
2022-11-18T13:13:01.039Z,3.65
2022-11-18T13:16:01.010Z,3.05
2022-11-18T13:18:29.018Z,2.55
2022-11-18T13:20:59.040Z,2.38
2022-11-18T13:23:56.196Z,3.53
2022-11-18T13:26:29.970Z,2.13
2022-11-18T13:29:26.523Z,2.55
2022-11-18T13:32:10.957Z,2.97
2022-11-18T13:34:46.669Z,5.72
2022-11-18T13:37:19.175Z,2.45
2022-11-18T13:39:50.122Z,5.50
2022-11-18T13:42:21.156Z,2.50
2022-11-18T13:44:54.559Z,3.22
2022-11-18T13:47:27.962Z,1.88
2022-11-18T13:50:04.164Z,3.38
2022-11-18T13:52:38.204Z,2.95
2022-11-18T13:55:18.157Z,2.47
2022-11-18T13:57:50.270Z,5.43
2022-11-18T14:00:25.574Z,3.05
2022-11-18T14:02:58.259Z,3.63
2022-11-18T14:05:30.127Z,2.47
2022-11-18T14:08:05.450Z,1.65
2022-11-18T14:10:41.627Z,1.70
2022-11-18T14:13:32.321Z,3.28
2022-11-18T14:16:02.624Z,2.42
2022-11-18T14:18:34.016Z,1.83
2022-11-18T14:21:03.582Z,1.95
2022-11-18T14:23:34.016Z,2.28
2022-11-18T14:26:06.896Z,2.88
2022-11-18T14:28:37.310Z,2.80
2022-11-18T14:31:08.427Z,4.00
2022-11-18T14:33:38.098Z,5.65
2022-11-18T14:36:12.859Z,2.55
2022-11-18T14:41:50.611Z,3.22
2022-11-18T14:44:20.434Z,4.72
2022-11-18T14:46:52.398Z,4.40
2022-11-18T14:49:23.700Z,4.90
2022-11-18T14:51:52.801Z,2.40
2022-11-18T14:54:26.348Z,3.30
2022-11-18T14:57:01.340Z,5.38
2022-11-18T14:59:29.862Z,3.47
2022-11-18T15:01:58.821Z,2.95
2022-11-18T15:04:27.543Z,4.93
2022-11-18T15:06:56.351Z,3.72
2022-11-18T15:09:24.745Z,5.00
2022-11-18T15:11:52.957Z,2.83
2022-11-18T15:14:22.798Z,3.33
2022-11-18T15:16:51.053Z,2.33
2022-11-18T15:19:19.165Z,2.38
2022-11-18T15:21:47.188Z,4.70
2022-11-18T15:24:15.240Z,6.72
2022-11-18T15:26:46.080Z,4.35
2022-11-18T15:29:18.360Z,4.55
2022-11-18T15:31:48.333Z,3.50
2022-11-18T15:34:18.301Z,4.25
2022-11-18T15:36:48.064Z,2.13
2022-11-18T15:39:16.538Z,6.60
2022-11-18T15:41:44.516Z,3.10
2022-11-18T15:44:13.353Z,3.42
2022-11-18T15:46:41.574Z,3.40
2022-11-18T15:49:15.466Z,3.60
2022-11-18T15:51:43.494Z,4.05
2022-11-18T15:54:11.658Z,3.95
2022-11-18T15:56:40.073Z,3.33
2022-11-18T15:59:11.038Z,3.20
2022-11-18T16:01:41.066Z,5.43
2022-11-18T16:04:11.397Z,2.83
2022-11-18T16:06:43.702Z,4.30
2022-11-18T16:09:15.869Z,3.47
2022-11-18T16:12:02.000Z,4.60
2022-11-18T16:15:10.776Z,2.28
2022-11-18T16:17:38.980Z,4.82
2022-11-18T16:20:08.265Z,4.00
2022-11-18T16:22:38.307Z,4.65
2022-11-18T16:25:07.510Z,4.40
2022-11-18T16:27:36.491Z,3.25
2022-11-18T16:30:06.362Z,2.45
2022-11-18T16:32:33.306Z,4.32
2022-11-18T16:35:01.919Z,4.40
2022-11-18T16:37:31.387Z,4.30
2022-11-18T16:40:01.412Z,5.65
2022-11-18T16:42:29.596Z,3.80
2022-11-18T16:45:00.817Z,6.43
2022-11-18T16:47:29.298Z,6.25
2022-11-18T16:50:00.710Z,2.60
2022-11-18T16:52:29.026Z,10.07
2022-11-18T16:54:57.340Z,7.57
2022-11-18T16:57:26.770Z,3.58
2022-11-18T16:59:54.944Z,4.32
2022-11-18T17:02:23.832Z,4.90
2022-11-18T17:04:52.199Z,5.07
2022-11-18T17:07:20.756Z,3.50
2022-11-18T17:09:48.739Z,3.30
2022-11-18T17:12:17.083Z,5.05
2022-11-18T17:14:47.061Z,6.82
2022-11-18T17:17:15.228Z,7.63
2022-11-18T17:19:43.348Z,6.40
2022-11-18T17:22:11.537Z,3.80
2022-11-18T17:24:39.865Z,5.78
2022-11-18T17:27:08.086Z,4.10
2022-11-18T17:29:39.071Z,6.60
2022-11-18T17:32:08.840Z,4.55
2022-11-18T17:34:36.907Z,7.38
2022-11-18T17:37:06.951Z,5.60
2022-11-18T17:39:35.469Z,4.13
2022-11-18T17:42:15.825Z,9.23
2022-11-18T17:44:43.674Z,6.03
2022-11-18T17:47:13.480Z,5.28
2022-11-18T17:49:41.495Z,7.20
2022-11-18T17:52:09.593Z,5.45
2022-11-18T17:54:37.762Z,7.05
2022-11-18T17:57:05.781Z,9.25
2022-11-18T17:59:33.832Z,3.33
2022-11-18T18:02:04.732Z,4.22
2022-11-18T18:04:34.275Z,5.53
2022-11-18T18:07:02.888Z,7.22
2022-11-18T18:09:36.537Z,8.88
2022-11-18T18:12:25.511Z,5.72
2022-11-18T18:14:55.053Z,5.95
2022-11-18T18:17:23.297Z,4.93
2022-11-18T18:19:52.699Z,6.35
2022-11-18T18:22:21.943Z,7.15
2022-11-18T18:24:50.332Z,6.50
2022-11-18T18:27:18.832Z,5.32
2022-11-18T18:29:46.899Z,5.82
2022-11-18T18:32:15.011Z,5.57
2022-11-18T18:34:44.844Z,6.50
2022-11-18T18:37:16.194Z,9.55
2022-11-18T18:39:45.063Z,4.13
2022-11-18T18:42:14.369Z,6.22
2022-11-18T18:45:02.042Z,4.85
2022-11-18T18:47:50.392Z,3.92
2022-11-18T18:50:25.043Z,4.38
2022-11-18T18:53:03.528Z,3.95
2022-11-18T18:55:45.278Z,2.55
2022-11-18T18:58:16.348Z,4.25
2022-11-18T19:00:53.083Z,2.80
2022-11-18T19:03:25.583Z,3.50
2022-11-18T19:06:22.236Z,4.57
2022-11-18T19:08:50.169Z,4.93
2022-11-18T19:11:38.989Z,4.13
2022-11-18T19:14:13.681Z,3.83
2022-11-18T19:16:49.612Z,4.00
2022-11-18T19:19:46.425Z,3.80
2022-11-18T19:22:20.908Z,3.22
2022-11-18T19:24:57.149Z,3.35
2022-11-18T19:27:32.553Z,3.10
2022-11-18T19:30:04.889Z,4.03
2022-11-18T19:32:41.507Z,5.07
2022-11-18T19:35:14.312Z,3.70
2022-11-18T19:37:48.833Z,3.50
2022-11-18T19:40:18.936Z,3.13
2022-11-18T19:42:47.798Z,4.32
2022-11-18T19:45:15.883Z,5.05
2022-11-18T19:47:47.451Z,2.83
2022-11-18T19:50:22.652Z,2.67
2022-11-18T19:52:58.094Z,2.60
2022-11-18T19:55:29.917Z,5.25
2022-11-18T19:58:04.409Z,4.03
2022-11-18T20:00:34.919Z,3.10
2022-11-18T20:03:08.341Z,3.92
2022-11-18T20:06:01.393Z,4.07
2022-11-18T20:08:36.215Z,4.70
2022-11-18T20:11:09.775Z,6.93
2022-11-18T20:13:39.614Z,3.63
2022-11-18T20:16:14.144Z,2.97
2022-11-18T20:18:50.671Z,5.00
2022-11-18T20:21:26.470Z,3.55
2022-11-18T20:24:04.119Z,7.47
2022-11-18T20:26:38.619Z,3.80
2022-11-18T20:29:09.431Z,4.03
2022-11-18T20:31:44.203Z,4.57
2022-11-18T20:34:20.032Z,5.45
2022-11-18T20:36:52.425Z,3.70
2022-11-18T20:39:22.406Z,2.75
2022-11-18T20:42:06.755Z,2.63
2022-11-18T20:44:36.482Z,2.90
2022-11-18T20:47:08.640Z,3.92
2022-11-18T20:49:41.941Z,2.10
2022-11-18T20:52:37.490Z,2.63
2022-11-18T20:55:11.760Z,4.72
2022-11-18T20:57:44.884Z,5.30
2022-11-18T21:00:16.164Z,2.63
2022-11-18T21:02:46.363Z,5.10
2022-11-18T21:05:19.450Z,5.20
2022-11-18T21:07:50.704Z,2.58
2022-11-18T21:10:20.318Z,2.30
2022-11-18T21:13:11.190Z,2.30
2022-11-18T21:15:41.887Z,3.42
2022-11-18T21:18:12.534Z,1.80
2022-11-18T21:20:59.001Z,1.80
2022-11-18T21:23:30.545Z,1.60
2022-11-18T21:26:02.046Z,2.05
2022-11-18T21:28:33.166Z,1.00
2022-11-18T21:31:03.974Z,1.58
2022-11-18T21:33:33.114Z,1.33
2022-11-18T21:36:08.054Z,1.88
2022-11-18T21:38:44.265Z,0.85
2022-11-18T21:41:19.169Z,0.90
2022-11-18T21:44:08.192Z,0.98
2022-11-18T21:46:39.203Z,1.95
2022-11-18T21:49:07.882Z,2.35
2022-11-18T21:51:37.569Z,2.45
2022-11-18T21:54:05.994Z,2.22
2022-11-18T21:56:54.570Z,4.10
2022-11-18T21:59:44.270Z,1.73
2022-11-18T22:02:14.739Z,0.50
2022-11-18T22:04:54.819Z,1.73
2022-11-18T22:07:23.880Z,0.70
2022-11-18T22:09:52.044Z,1.00
2022-11-18T22:12:19.996Z,0.45
2022-11-18T22:14:49.664Z,0.50
2022-11-18T22:17:17.680Z,2.15
2022-11-18T22:19:45.772Z,0.50
2022-11-18T22:22:13.703Z,0.80
2022-11-18T22:24:46.991Z,0.70
2022-11-18T22:27:15.260Z,1.65
2022-11-18T22:29:43.307Z,1.50
2022-11-18T22:32:13.019Z,0.95
2022-11-18T22:34:41.141Z,2.15
2022-11-18T22:37:09.153Z,1.00
2022-11-18T22:39:37.173Z,1.23
2022-11-18T22:42:28.003Z,0.80
2022-11-18T22:44:57.002Z,1.75
2022-11-18T22:47:26.539Z,2.25
2022-11-18T22:49:56.557Z,2.15
2022-11-18T22:52:24.814Z,2.35
2022-11-18T22:54:53.006Z,1.10
2022-11-18T22:57:20.986Z,1.08
2022-11-18T22:59:49.248Z,1.02
2022-11-18T23:02:17.469Z,1.08
2022-11-18T23:04:52.553Z,1.60
2022-11-18T23:07:20.820Z,1.38
2022-11-18T23:10:01.136Z,1.42
2022-11-18T23:12:47.861Z,1.63
2022-11-18T23:15:16.279Z,3.60
2022-11-18T23:17:44.295Z,1.13
2022-11-18T23:20:14.057Z,1.08
2022-11-18T23:22:42.023Z,2.47
2022-11-18T23:25:10.569Z,0.90
2022-11-18T23:27:38.460Z,1.02
2022-11-18T23:30:07.844Z,0.90
2022-11-18T23:32:35.854Z,1.10
2022-11-18T23:35:04.041Z,1.00
2022-11-18T23:37:33.508Z,1.15
2022-11-18T23:40:01.479Z,1.52
2022-11-18T23:42:29.522Z,1.38
2022-11-18T23:45:03.809Z,1.42
2022-11-18T23:47:33.569Z,1.15
2022-11-18T23:50:01.519Z,1.05
2022-11-18T23:52:29.729Z,2.03
2022-11-18T23:55:01.484Z,1.60
2022-11-18T23:57:29.461Z,1.67
2022-11-18T23:59:57.671Z,2.15
